createdAt,value
2024-03-24T00:01:42.307Z,100.00
2024-03-24T00:16:44.371Z,100.00
2024-03-24T00:31:48.315Z,100.00
2024-03-24T00:46:52.340Z,100.00
2024-03-24T01:01:54.737Z,100.00
2024-03-24T01:16:56.557Z,100.00
2024-03-24T01:31:58.781Z,100.00
2024-03-24T01:47:00.979Z,100.00
2024-03-24T02:02:02.821Z,100.00
2024-03-24T02:17:04.757Z,100.00
2024-03-24T02:32:07.845Z,100.00
2024-03-24T02:47:11.102Z,100.00
2024-03-24T03:02:12.945Z,100.00
2024-03-24T03:17:16.519Z,100.00
2024-03-24T03:32:21.090Z,100.00
2024-03-24T03:47:27.172Z,100.00
2024-03-24T04:02:34.529Z,100.00
2024-03-24T04:17:38.510Z,100.00
2024-03-24T04:32:40.544Z,100.00
2024-03-24T04:47:42.890Z,100.00
2024-03-24T05:02:47.866Z,100.00
2024-03-24T05:17:51.427Z,100.00
2024-03-24T05:32:53.454Z,100.00
2024-03-24T05:47:55.721Z,100.00
2024-03-24T06:02:57.794Z,100.00
2024-03-24T06:18:05.776Z,100.00
2024-03-24T06:33:09.947Z,100.00
2024-03-24T06:48:12.206Z,100.00
2024-03-24T07:03:14.025Z,100.00
2024-03-24T07:18:16.990Z,100.00
2024-03-24T07:33:19.333Z,100.00
2024-03-24T07:48:21.718Z,100.00
2024-03-24T08:03:23.699Z,99.97
2024-03-24T08:18:25.614Z,94.41
2024-03-24T08:33:27.808Z,88.64
2024-03-24T08:48:38.130Z,84.69
2024-03-24T09:03:43.990Z,78.46
2024-03-24T09:18:49.024Z,76.14
2024-03-24T09:33:50.854Z,69.06
2024-03-24T09:48:55.461Z,65.05
2024-03-24T10:03:57.533Z,66.37
2024-03-24T10:19:10.334Z,67.56
2024-03-24T10:34:14.558Z,65.51
2024-03-24T10:49:21.068Z,66.41
2024-03-24T11:04:23.460Z,67.35
2024-03-24T11:19:27.582Z,66.19
2024-03-24T11:34:29.781Z,69.73
2024-03-24T11:49:46.748Z,69.83
2024-03-24T12:04:49.579Z,66.22
2024-03-24T12:19:52.320Z,65.79
2024-03-24T12:34:59.675Z,64.76
2024-03-24T12:50:17.016Z,64.59
2024-03-24T13:05:24.408Z,63.35
2024-03-24T13:20:28.052Z,61.58
2024-03-24T13:35:30.483Z,58.79
2024-03-24T13:50:35.167Z,58.61
2024-03-24T14:05:37.318Z,60.04
2024-03-24T14:20:51.718Z,61.62
2024-03-24T14:36:14.580Z,62.26
2024-03-24T14:51:17.468Z,63.02
2024-03-24T15:06:19.809Z,61.00
2024-03-24T15:21:21.838Z,60.94
2024-03-24T15:36:24.120Z,61.77
2024-03-24T15:51:26.440Z,62.58
2024-03-24T16:06:28.808Z,64.59
2024-03-24T16:22:05.376Z,66.55
2024-03-24T16:37:07.424Z,71.69
2024-03-24T16:52:09.407Z,73.70
2024-03-24T17:07:11.650Z,70.51
2024-03-24T17:22:13.912Z,69.72
2024-03-24T17:37:16.156Z,71.56
2024-03-24T17:52:18.311Z,76.12
2024-03-24T18:07:39.005Z,83.76
2024-03-24T18:22:48.317Z,90.19
2024-03-24T18:37:50.992Z,91.20
2024-03-24T18:52:56.350Z,93.36
2024-03-24T19:07:58.638Z,93.30
2024-03-24T19:23:01.269Z,93.69
2024-03-24T19:38:03.569Z,94.91
2024-03-24T19:53:05.313Z,96.79
2024-03-24T20:08:10.163Z,99.41
2024-03-24T20:23:16.141Z,100.00
2024-03-24T20:38:19.020Z,100.00
2024-03-24T20:53:21.191Z,100.00
2024-03-24T21:08:24.109Z,100.00
2024-03-24T21:23:26.552Z,100.00
2024-03-24T21:38:47.179Z,98.38
2024-03-24T21:53:50.589Z,98.69
2024-03-24T22:08:52.957Z,99.80
2024-03-24T22:23:55.382Z,99.99
2024-03-24T22:38:57.341Z,100.00
2024-03-24T22:53:59.187Z,100.00
2024-03-24T23:09:02.047Z,100.00
2024-03-24T23:24:04.193Z,100.00
2024-03-24T23:39:07.001Z,100.00
2024-03-24T23:54:09.248Z,100.00
